sensor_id;sensor_type;location;lat;lon;timestamp;P1;durP1;ratioP1;P2;durP2;ratioP2
64157;SDS011;50449;51.528;5.076;2023-06-22T00:01:08;129.80;;;124.18;;
64157;SDS011;50449;51.528;5.076;2023-06-22T00:03:33;126.88;;;121.30;;
64157;SDS011;50449;51.528;5.076;2023-06-22T00:05:59;132.82;;;127.13;;
64157;SDS011;50449;51.528;5.076;2023-06-22T00:08:24;127.13;;;121.55;;
64157;SDS011;50449;51.528;5.076;2023-06-22T00:10:50;129.30;;;123.57;;
64157;SDS011;50449;51.528;5.076;2023-06-22T00:13:16;130.52;;;124.88;;
64157;SDS011;50449;51.528;5.076;2023-06-22T00:15:42;128.23;;;122.53;;
64157;SDS011;50449;51.528;5.076;2023-06-22T00:18:09;128.90;;;123.28;;
64157;SDS011;50449;51.528;5.076;2023-06-22T00:20:35;125.30;;;119.75;;
64157;SDS011;50449;51.528;5.076;2023-06-22T00:23:05;130.85;;;125.15;;
64157;SDS011;50449;51.528;5.076;2023-06-22T00:25:32;130.13;;;124.32;;
64157;SDS011;50449;51.528;5.076;2023-06-22T00:27:58;131.63;;;125.88;;
64157;SDS011;50449;51.528;5.076;2023-06-22T00:30:24;127.15;;;121.68;;
64157;SDS011;50449;51.528;5.076;2023-06-22T00:32:49;128.02;;;122.53;;
64157;SDS011;50449;51.528;5.076;2023-06-22T00:35:14;131.52;;;125.72;;
64157;SDS011;50449;51.528;5.076;2023-06-22T00:37:40;129.23;;;123.50;;
64157;SDS011;50449;51.528;5.076;2023-06-22T00:40:07;128.02;;;122.07;;
64157;SDS011;50449;51.528;5.076;2023-06-22T00:42:36;124.18;;;118.47;;
64157;SDS011;50449;51.528;5.076;2023-06-22T00:45:01;126.18;;;120.68;;
64157;SDS011;50449;51.528;5.076;2023-06-22T00:47:27;125.78;;;120.20;;
64157;SDS011;50449;51.528;5.076;2023-06-22T00:49:52;124.90;;;119.50;;
64157;SDS011;50449;51.528;5.076;2023-06-22T00:52:21;123.35;;;117.85;;
64157;SDS011;50449;51.528;5.076;2023-06-22T00:54:52;123.53;;;118.03;;
64157;SDS011;50449;51.528;5.076;2023-06-22T00:57:18;126.10;;;120.60;;
64157;SDS011;50449;51.528;5.076;2023-06-22T00:59:45;123.78;;;118.13;;
64157;SDS011;50449;51.528;5.076;2023-06-22T01:02:12;125.80;;;120.20;;
64157;SDS011;50449;51.528;5.076;2023-06-22T01:04:38;123.32;;;117.88;;
64157;SDS011;50449;51.528;5.076;2023-06-22T01:07:13;126.72;;;121.13;;
64157;SDS011;50449;51.528;5.076;2023-06-22T01:10:29;124.63;;;118.70;;
64157;SDS011;50449;51.528;5.076;2023-06-22T01:12:34;127.25;;;121.50;;
64157;SDS011;50449;51.528;5.076;2023-06-22T01:15:18;124.75;;;119.15;;
64157;SDS011;50449;51.528;5.076;2023-06-22T01:17:50;124.82;;;119.22;;
64157;SDS011;50449;51.528;5.076;2023-06-22T01:20:17;121.82;;;115.93;;
64157;SDS011;50449;51.528;5.076;2023-06-22T01:22:52;121.10;;;115.68;;
64157;SDS011;50449;51.528;5.076;2023-06-22T01:25:20;119.72;;;114.28;;
64157;SDS011;50449;51.528;5.076;2023-06-22T01:27:59;124.78;;;119.28;;
64157;SDS011;50449;51.528;5.076;2023-06-22T01:30:28;125.78;;;120.07;;
64157;SDS011;50449;51.528;5.076;2023-06-22T01:32:58;127.65;;;121.78;;
64157;SDS011;50449;51.528;5.076;2023-06-22T01:35:24;123.18;;;117.55;;
64157;SDS011;50449;51.528;5.076;2023-06-22T01:37:50;121.80;;;116.10;;
64157;SDS011;50449;51.528;5.076;2023-06-22T01:40:16;124.35;;;118.28;;
64157;SDS011;50449;51.528;5.076;2023-06-22T01:42:43;123.22;;;117.53;;
64157;SDS011;50449;51.528;5.076;2023-06-22T01:45:10;124.10;;;118.40;;
64157;SDS011;50449;51.528;5.076;2023-06-22T01:47:37;123.38;;;117.68;;
64157;SDS011;50449;51.528;5.076;2023-06-22T01:50:04;122.75;;;116.95;;
64157;SDS011;50449;51.528;5.076;2023-06-22T01:52:30;120.05;;;114.53;;
64157;SDS011;50449;51.528;5.076;2023-06-22T01:57:24;116.30;;;111.00;;
64157;SDS011;50449;51.528;5.076;2023-06-22T02:02:24;122.05;;;116.35;;
64157;SDS011;50449;51.528;5.076;2023-06-22T02:04:56;118.97;;;113.38;;
64157;SDS011;50449;51.528;5.076;2023-06-22T02:07:26;121.30;;;115.70;;
64157;SDS011;50449;51.528;5.076;2023-06-22T02:09:57;122.43;;;116.68;;
64157;SDS011;50449;51.528;5.076;2023-06-22T02:12:24;122.05;;;116.35;;
64157;SDS011;50449;51.528;5.076;2023-06-22T02:14:52;120.32;;;114.65;;
64157;SDS011;50449;51.528;5.076;2023-06-22T02:17:18;123.60;;;117.82;;
64157;SDS011;50449;51.528;5.076;2023-06-22T02:19:44;119.75;;;113.93;;
64157;SDS011;50449;51.528;5.076;2023-06-22T02:22:10;120.55;;;114.78;;
64157;SDS011;50449;51.528;5.076;2023-06-22T02:24:37;125.63;;;119.85;;
64157;SDS011;50449;51.528;5.076;2023-06-22T02:27:03;119.35;;;113.57;;
64157;SDS011;50449;51.528;5.076;2023-06-22T02:29:29;120.32;;;114.47;;
64157;SDS011;50449;51.528;5.076;2023-06-22T02:31:55;120.63;;;114.68;;
64157;SDS011;50449;51.528;5.076;2023-06-22T02:34:21;119.45;;;113.82;;
64157;SDS011;50449;51.528;5.076;2023-06-22T02:36:47;121.10;;;115.43;;
64157;SDS011;50449;51.528;5.076;2023-06-22T02:39:20;120.85;;;115.13;;
64157;SDS011;50449;51.528;5.076;2023-06-22T02:41:48;118.93;;;113.22;;
64157;SDS011;50449;51.528;5.076;2023-06-22T02:44:17;120.50;;;114.70;;
64157;SDS011;50449;51.528;5.076;2023-06-22T02:46:43;118.82;;;113.18;;
64157;SDS011;50449;51.528;5.076;2023-06-22T02:49:10;120.55;;;114.68;;
64157;SDS011;50449;51.528;5.076;2023-06-22T02:51:37;124.30;;;118.18;;
64157;SDS011;50449;51.528;5.076;2023-06-22T02:54:05;119.85;;;114.22;;
64157;SDS011;50449;51.528;5.076;2023-06-22T02:56:31;118.57;;;112.93;;
64157;SDS011;50449;51.528;5.076;2023-06-22T02:58:56;119.72;;;114.07;;
64157;SDS011;50449;51.528;5.076;2023-06-22T03:01:26;125.88;;;119.70;;
64157;SDS011;50449;51.528;5.076;2023-06-22T03:03:55;123.35;;;117.35;;
64157;SDS011;50449;51.528;5.076;2023-06-22T03:06:21;120.68;;;114.88;;
64157;SDS011;50449;51.528;5.076;2023-06-22T03:08:57;118.72;;;112.97;;
64157;SDS011;50449;51.528;5.076;2023-06-22T03:11:26;118.00;;;112.13;;
64157;SDS011;50449;51.528;5.076;2023-06-22T03:13:52;121.03;;;115.05;;
64157;SDS011;50449;51.528;5.076;2023-06-22T03:16:18;122.82;;;116.90;;
64157;SDS011;50449;51.528;5.076;2023-06-22T03:18:44;118.88;;;113.22;;
64157;SDS011;50449;51.528;5.076;2023-06-22T03:21:09;116.40;;;110.80;;
64157;SDS011;50449;51.528;5.076;2023-06-22T03:23:35;119.25;;;112.88;;
64157;SDS011;50449;51.528;5.076;2023-06-22T03:26:01;119.55;;;113.75;;
64157;SDS011;50449;51.528;5.076;2023-06-22T03:28:26;117.75;;;112.05;;
64157;SDS011;50449;51.528;5.076;2023-06-22T03:30:52;116.22;;;110.40;;
64157;SDS011;50449;51.528;5.076;2023-06-22T03:33:17;115.93;;;110.28;;
64157;SDS011;50449;51.528;5.076;2023-06-22T03:35:43;119.20;;;113.50;;
64157;SDS011;50449;51.528;5.076;2023-06-22T03:38:08;116.30;;;110.82;;
64157;SDS011;50449;51.528;5.076;2023-06-22T03:40:33;116.60;;;111.10;;
64157;SDS011;50449;51.528;5.076;2023-06-22T03:42:59;115.85;;;109.20;;
64157;SDS011;50449;51.528;5.076;2023-06-22T03:45:24;116.55;;;110.72;;
64157;SDS011;50449;51.528;5.076;2023-06-22T03:47:50;118.20;;;112.43;;
64157;SDS011;50449;51.528;5.076;2023-06-22T03:50:15;120.22;;;114.32;;
64157;SDS011;50449;51.528;5.076;2023-06-22T03:52:40;113.93;;;108.28;;
64157;SDS011;50449;51.528;5.076;2023-06-22T03:55:06;113.40;;;107.72;;
64157;SDS011;50449;51.528;5.076;2023-06-22T03:57:32;116.90;;;110.90;;
64157;SDS011;50449;51.528;5.076;2023-06-22T03:59:58;111.97;;;106.40;;
64157;SDS011;50449;51.528;5.076;2023-06-22T04:02:25;114.03;;;108.47;;
64157;SDS011;50449;51.528;5.076;2023-06-22T04:04:50;115.07;;;109.57;;
64157;SDS011;50449;51.528;5.076;2023-06-22T04:07:16;115.82;;;109.90;;
64157;SDS011;50449;51.528;5.076;2023-06-22T04:09:43;114.45;;;108.93;;
64157;SDS011;50449;51.528;5.076;2023-06-22T04:12:09;114.30;;;108.82;;
64157;SDS011;50449;51.528;5.076;2023-06-22T04:14:34;116.15;;;110.35;;
64157;SDS011;50449;51.528;5.076;2023-06-22T04:17:01;115.65;;;110.05;;
64157;SDS011;50449;51.528;5.076;2023-06-22T04:19:26;111.90;;;106.28;;
64157;SDS011;50449;51.528;5.076;2023-06-22T04:21:52;112.88;;;107.38;;
64157;SDS011;50449;51.528;5.076;2023-06-22T04:24:17;111.40;;;105.95;;
64157;SDS011;50449;51.528;5.076;2023-06-22T04:26:43;112.90;;;107.32;;
64157;SDS011;50449;51.528;5.076;2023-06-22T04:29:10;113.10;;;107.53;;
64157;SDS011;50449;51.528;5.076;2023-06-22T04:31:36;112.30;;;106.63;;
64157;SDS011;50449;51.528;5.076;2023-06-22T04:34:02;114.65;;;109.15;;
64157;SDS011;50449;51.528;5.076;2023-06-22T04:36:34;114.32;;;108.63;;
64157;SDS011;50449;51.528;5.076;2023-06-22T04:39:07;108.75;;;103.47;;
64157;SDS011;50449;51.528;5.076;2023-06-22T04:41:35;113.93;;;107.93;;
64157;SDS011;50449;51.528;5.076;2023-06-22T04:44:10;109.22;;;103.88;;
64157;SDS011;50449;51.528;5.076;2023-06-22T04:46:49;112.10;;;106.40;;
64157;SDS011;50449;51.528;5.076;2023-06-22T04:49:24;106.97;;;101.50;;
64157;SDS011;50449;51.528;5.076;2023-06-22T04:51:57;111.15;;;105.43;;
64157;SDS011;50449;51.528;5.076;2023-06-22T04:54:23;111.78;;;106.13;;
64157;SDS011;50449;51.528;5.076;2023-06-22T04:56:48;111.70;;;106.22;;
64157;SDS011;50449;51.528;5.076;2023-06-22T04:59:21;109.80;;;104.68;;
64157;SDS011;50449;51.528;5.076;2023-06-22T05:01:47;107.65;;;102.18;;
64157;SDS011;50449;51.528;5.076;2023-06-22T05:04:13;111.80;;;105.97;;
64157;SDS011;50449;51.528;5.076;2023-06-22T05:06:39;111.60;;;105.93;;
64157;SDS011;50449;51.528;5.076;2023-06-22T05:09:04;109.13;;;103.95;;
64157;SDS011;50449;51.528;5.076;2023-06-22T05:11:30;107.82;;;102.38;;
64157;SDS011;50449;51.528;5.076;2023-06-22T05:13:56;108.97;;;103.78;;
64157;SDS011;50449;51.528;5.076;2023-06-22T05:16:21;109.35;;;104.13;;
64157;SDS011;50449;51.528;5.076;2023-06-22T05:18:55;108.05;;;102.45;;
64157;SDS011;50449;51.528;5.076;2023-06-22T05:21:21;107.85;;;102.50;;
64157;SDS011;50449;51.528;5.076;2023-06-22T05:23:48;107.07;;;101.97;;
64157;SDS011;50449;51.528;5.076;2023-06-22T05:26:14;112.13;;;106.75;;
64157;SDS011;50449;51.528;5.076;2023-06-22T05:28:39;108.45;;;103.28;;
64157;SDS011;50449;51.528;5.076;2023-06-22T05:31:05;107.13;;;101.93;;
64157;SDS011;50449;51.528;5.076;2023-06-22T05:33:30;113.78;;;107.80;;
64157;SDS011;50449;51.528;5.076;2023-06-22T05:35:55;107.40;;;102.30;;
64157;SDS011;50449;51.528;5.076;2023-06-22T05:38:21;110.32;;;104.82;;
64157;SDS011;50449;51.528;5.076;2023-06-22T05:40:46;107.28;;;102.13;;
64157;SDS011;50449;51.528;5.076;2023-06-22T05:43:12;109.38;;;104.00;;
64157;SDS011;50449;51.528;5.076;2023-06-22T05:45:37;106.57;;;101.47;;
64157;SDS011;50449;51.528;5.076;2023-06-22T05:48:02;105.47;;;100.40;;
64157;SDS011;50449;51.528;5.076;2023-06-22T05:50:28;108.30;;;102.97;;
64157;SDS011;50449;51.528;5.076;2023-06-22T05:52:53;108.07;;;102.78;;
64157;SDS011;50449;51.528;5.076;2023-06-22T05:55:19;106.05;;;100.85;;
64157;SDS011;50449;51.528;5.076;2023-06-22T05:57:44;109.72;;;103.95;;
64157;SDS011;50449;51.528;5.076;2023-06-22T06:00:10;104.70;;;99.70;;
64157;SDS011;50449;51.528;5.076;2023-06-22T06:02:37;111.90;;;105.93;;
64157;SDS011;50449;51.528;5.076;2023-06-22T06:05:09;107.32;;;101.65;;
64157;SDS011;50449;51.528;5.076;2023-06-22T06:07:41;107.55;;;102.05;;
64157;SDS011;50449;51.528;5.076;2023-06-22T06:10:09;106.55;;;100.82;;
64157;SDS011;50449;51.528;5.076;2023-06-22T06:12:35;106.45;;;101.30;;
64157;SDS011;50449;51.528;5.076;2023-06-22T06:15:01;105.13;;;100.05;;
64157;SDS011;50449;51.528;5.076;2023-06-22T06:17:26;105.63;;;100.45;;
64157;SDS011;50449;51.528;5.076;2023-06-22T06:19:52;105.35;;;100.32;;
64157;SDS011;50449;51.528;5.076;2023-06-22T06:22:17;106.68;;;101.43;;
64157;SDS011;50449;51.528;5.076;2023-06-22T06:24:44;105.22;;;100.03;;
64157;SDS011;50449;51.528;5.076;2023-06-22T06:27:10;108.57;;;103.20;;
64157;SDS011;50449;51.528;5.076;2023-06-22T06:29:35;111.65;;;106.15;;
64157;SDS011;50449;51.528;5.076;2023-06-22T06:32:01;106.72;;;101.47;;
64157;SDS011;50449;51.528;5.076;2023-06-22T06:34:26;107.00;;;101.70;;
64157;SDS011;50449;51.528;5.076;2023-06-22T06:36:52;107.68;;;102.10;;
64157;SDS011;50449;51.528;5.076;2023-06-22T06:39:17;104.47;;;99.30;;
64157;SDS011;50449;51.528;5.076;2023-06-22T06:41:43;107.07;;;101.63;;
64157;SDS011;50449;51.528;5.076;2023-06-22T06:44:08;109.53;;;103.82;;
64157;SDS011;50449;51.528;5.076;2023-06-22T06:46:33;110.15;;;104.68;;
64157;SDS011;50449;51.528;5.076;2023-06-22T06:48:59;109.88;;;104.40;;
64157;SDS011;50449;51.528;5.076;2023-06-22T06:51:24;109.07;;;103.65;;
64157;SDS011;50449;51.528;5.076;2023-06-22T06:53:49;106.50;;;100.82;;
64157;SDS011;50449;51.528;5.076;2023-06-22T06:56:15;108.72;;;103.00;;
64157;SDS011;50449;51.528;5.076;2023-06-22T06:58:41;107.35;;;102.05;;
64157;SDS011;50449;51.528;5.076;2023-06-22T07:01:07;108.45;;;102.97;;
64157;SDS011;50449;51.528;5.076;2023-06-22T07:03:33;110.38;;;104.20;;
64157;SDS011;50449;51.528;5.076;2023-06-22T07:05:59;106.82;;;101.43;;
64157;SDS011;50449;51.528;5.076;2023-06-22T07:08:24;111.28;;;104.65;;
64157;SDS011;50449;51.528;5.076;2023-06-22T07:10:50;107.60;;;101.43;;
64157;SDS011;50449;51.528;5.076;2023-06-22T07:13:17;109.55;;;103.90;;
64157;SDS011;50449;51.528;5.076;2023-06-22T07:15:42;110.10;;;104.30;;
64157;SDS011;50449;51.528;5.076;2023-06-22T07:18:08;109.03;;;103.63;;
64157;SDS011;50449;51.528;5.076;2023-06-22T07:20:33;112.10;;;106.10;;
64157;SDS011;50449;51.528;5.076;2023-06-22T07:22:59;112.80;;;106.43;;
64157;SDS011;50449;51.528;5.076;2023-06-22T07:25:24;110.60;;;104.45;;
64157;SDS011;50449;51.528;5.076;2023-06-22T07:28:00;109.15;;;103.30;;
64157;SDS011;50449;51.528;5.076;2023-06-22T07:30:28;109.53;;;103.28;;
64157;SDS011;50449;51.528;5.076;2023-06-22T07:32:54;108.47;;;103.07;;
64157;SDS011;50449;51.528;5.076;2023-06-22T07:35:19;106.63;;;101.28;;
64157;SDS011;50449;51.528;5.076;2023-06-22T07:37:45;113.53;;;107.68;;
64157;SDS011;50449;51.528;5.076;2023-06-22T07:40:10;109.65;;;104.18;;
64157;SDS011;50449;51.528;5.076;2023-06-22T07:42:36;107.40;;;101.88;;
64157;SDS011;50449;51.528;5.076;2023-06-22T07:45:05;107.22;;;101.55;;
64157;SDS011;50449;51.528;5.076;2023-06-22T07:47:33;112.22;;;106.25;;
64157;SDS011;50449;51.528;5.076;2023-06-22T07:50:00;110.03;;;104.05;;
64157;SDS011;50449;51.528;5.076;2023-06-22T07:52:27;111.30;;;105.40;;
64157;SDS011;50449;51.528;5.076;2023-06-22T07:54:52;111.90;;;106.10;;
64157;SDS011;50449;51.528;5.076;2023-06-22T07:57:18;109.50;;;103.80;;
64157;SDS011;50449;51.528;5.076;2023-06-22T07:59:44;109.43;;;103.95;;
64157;SDS011;50449;51.528;5.076;2023-06-22T08:02:10;111.13;;;105.13;;
64157;SDS011;50449;51.528;5.076;2023-06-22T08:04:36;108.28;;;102.60;;
64157;SDS011;50449;51.528;5.076;2023-06-22T08:07:01;107.25;;;101.45;;
64157;SDS011;50449;51.528;5.076;2023-06-22T08:09:30;111.10;;;105.40;;
64157;SDS011;50449;51.528;5.076;2023-06-22T08:11:57;109.22;;;103.38;;
64157;SDS011;50449;51.528;5.076;2023-06-22T08:14:23;108.75;;;102.93;;
64157;SDS011;50449;51.528;5.076;2023-06-22T08:16:50;110.78;;;104.78;;
64157;SDS011;50449;51.528;5.076;2023-06-22T08:19:15;110.60;;;104.97;;
64157;SDS011;50449;51.528;5.076;2023-06-22T08:21:42;113.32;;;107.53;;
64157;SDS011;50449;51.528;5.076;2023-06-22T08:24:07;113.00;;;107.13;;
64157;SDS011;50449;51.528;5.076;2023-06-22T08:26:33;108.82;;;103.10;;
64157;SDS011;50449;51.528;5.076;2023-06-22T08:29:02;111.40;;;105.53;;
64157;SDS011;50449;51.528;5.076;2023-06-22T08:31:31;110.95;;;105.13;;
64157;SDS011;50449;51.528;5.076;2023-06-22T08:33:58;110.10;;;104.67;;
64157;SDS011;50449;51.528;5.076;2023-06-22T08:36:23;113.20;;;107.30;;
64157;SDS011;50449;51.528;5.076;2023-06-22T08:38:49;113.05;;;107.20;;
64157;SDS011;50449;51.528;5.076;2023-06-22T08:41:16;110.63;;;104.93;;
64157;SDS011;50449;51.528;5.076;2023-06-22T08:43:42;112.47;;;106.38;;
64157;SDS011;50449;51.528;5.076;2023-06-22T08:46:09;109.93;;;104.53;;
64157;SDS011;50449;51.528;5.076;2023-06-22T08:48:35;114.18;;;108.28;;
64157;SDS011;50449;51.528;5.076;2023-06-22T08:51:01;109.80;;;104.00;;
64157;SDS011;50449;51.528;5.076;2023-06-22T08:53:27;112.40;;;106.47;;
64157;SDS011;50449;51.528;5.076;2023-06-22T08:55:52;112.25;;;106.50;;
64157;SDS011;50449;51.528;5.076;2023-06-22T08:58:18;111.30;;;105.63;;
64157;SDS011;50449;51.528;5.076;2023-06-22T09:00:45;113.13;;;106.97;;
64157;SDS011;50449;51.528;5.076;2023-06-22T09:03:10;111.35;;;105.55;;
64157;SDS011;50449;51.528;5.076;2023-06-22T09:05:36;117.65;;;111.63;;
64157;SDS011;50449;51.528;5.076;2023-06-22T09:08:02;113.68;;;107.85;;
64157;SDS011;50449;51.528;5.076;2023-06-22T09:10:28;104.60;;;98.47;;
64157;SDS011;50449;51.528;5.076;2023-06-22T09:12:53;109.28;;;103.38;;
64157;SDS011;50449;51.528;5.076;2023-06-22T09:15:19;108.65;;;103.07;;
64157;SDS011;50449;51.528;5.076;2023-06-22T09:17:44;110.45;;;104.68;;
64157;SDS011;50449;51.528;5.076;2023-06-22T09:20:11;110.60;;;104.90;;
64157;SDS011;50449;51.528;5.076;2023-06-22T09:22:37;108.40;;;102.85;;
64157;SDS011;50449;51.528;5.076;2023-06-22T09:25:02;109.88;;;103.57;;
64157;SDS011;50449;51.528;5.076;2023-06-22T09:27:28;111.93;;;105.82;;
64157;SDS011;50449;51.528;5.076;2023-06-22T09:29:54;115.95;;;109.75;;
64157;SDS011;50449;51.528;5.076;2023-06-22T09:32:19;111.22;;;105.43;;
64157;SDS011;50449;51.528;5.076;2023-06-22T09:39:55;112.47;;;106.45;;
64157;SDS011;50449;51.528;5.076;2023-06-22T09:42:21;108.28;;;102.53;;
64157;SDS011;50449;51.528;5.076;2023-06-22T09:44:46;107.18;;;101.70;;
64157;SDS011;50449;51.528;5.076;2023-06-22T09:47:11;112.43;;;106.53;;
64157;SDS011;50449;51.528;5.076;2023-06-22T09:49:37;109.90;;;103.80;;
64157;SDS011;50449;51.528;5.076;2023-06-22T09:52:02;113.47;;;107.43;;
64157;SDS011;50449;51.528;5.076;2023-06-22T09:54:28;110.45;;;104.65;;
64157;SDS011;50449;51.528;5.076;2023-06-22T09:56:53;110.60;;;104.90;;
64157;SDS011;50449;51.528;5.076;2023-06-22T09:59:18;112.25;;;106.57;;
64157;SDS011;50449;51.528;5.076;2023-06-22T10:01:44;108.60;;;103.07;;
64157;SDS011;50449;51.528;5.076;2023-06-22T10:04:09;109.45;;;103.63;;
64157;SDS011;50449;51.528;5.076;2023-06-22T10:06:34;107.97;;;102.32;;
64157;SDS011;50449;51.528;5.076;2023-06-22T10:09:00;111.85;;;106.05;;
64157;SDS011;50449;51.528;5.076;2023-06-22T10:11:25;110.22;;;104.20;;
64157;SDS011;50449;51.528;5.076;2023-06-22T10:13:55;105.97;;;100.30;;
64157;SDS011;50449;51.528;5.076;2023-06-22T10:16:20;101.32;;;96.43;;
64157;SDS011;50449;51.528;5.076;2023-06-22T10:18:46;106.95;;;101.63;;
64157;SDS011;50449;51.528;5.076;2023-06-22T10:21:11;106.40;;;100.88;;
64157;SDS011;50449;51.528;5.076;2023-06-22T10:23:37;108.68;;;102.85;;
64157;SDS011;50449;51.528;5.076;2023-06-22T10:26:02;108.82;;;103.38;;
64157;SDS011;50449;51.528;5.076;2023-06-22T10:28:27;115.50;;;109.55;;
64157;SDS011;50449;51.528;5.076;2023-06-22T10:30:53;108.15;;;102.43;;
64157;SDS011;50449;51.528;5.076;2023-06-22T10:33:18;110.20;;;104.50;;
64157;SDS011;50449;51.528;5.076;2023-06-22T10:35:44;109.32;;;103.53;;
64157;SDS011;50449;51.528;5.076;2023-06-22T10:38:09;109.95;;;104.35;;
64157;SDS011;50449;51.528;5.076;2023-06-22T10:40:34;109.70;;;104.03;;
64157;SDS011;50449;51.528;5.076;2023-06-22T10:43:00;113.90;;;107.70;;
64157;SDS011;50449;51.528;5.076;2023-06-22T10:45:25;114.18;;;108.13;;
64157;SDS011;50449;51.528;5.076;2023-06-22T10:47:52;110.05;;;103.90;;
64157;SDS011;50449;51.528;5.076;2023-06-22T10:50:18;108.88;;;103.18;;
64157;SDS011;50449;51.528;5.076;2023-06-22T10:52:43;110.07;;;104.47;;
64157;SDS011;50449;51.528;5.076;2023-06-22T10:55:09;111.30;;;105.60;;
64157;SDS011;50449;51.528;5.076;2023-06-22T10:57:35;105.53;;;100.15;;
64157;SDS011;50449;51.528;5.076;2023-06-22T11:00:01;112.57;;;106.57;;
64157;SDS011;50449;51.528;5.076;2023-06-22T11:02:30;110.78;;;104.85;;
64157;SDS011;50449;51.528;5.076;2023-06-22T11:04:56;110.60;;;104.82;;
64157;SDS011;50449;51.528;5.076;2023-06-22T11:07:21;111.72;;;105.72;;
64157;SDS011;50449;51.528;5.076;2023-06-22T11:09:47;110.68;;;104.65;;
64157;SDS011;50449;51.528;5.076;2023-06-22T11:12:12;112.15;;;106.55;;
64157;SDS011;50449;51.528;5.076;2023-06-22T11:14:38;109.72;;;104.03;;
64157;SDS011;50449;51.528;5.076;2023-06-22T11:17:04;112.00;;;106.05;;
64157;SDS011;50449;51.528;5.076;2023-06-22T11:19:29;114.63;;;108.75;;
64157;SDS011;50449;51.528;5.076;2023-06-22T11:21:55;112.45;;;106.45;;
64157;SDS011;50449;51.528;5.076;2023-06-22T11:24:20;110.63;;;104.70;;
64157;SDS011;50449;51.528;5.076;2023-06-22T11:26:46;111.63;;;105.82;;
64157;SDS011;50449;51.528;5.076;2023-06-22T11:29:11;113.22;;;106.90;;
64157;SDS011;50449;51.528;5.076;2023-06-22T11:31:37;110.00;;;104.13;;
64157;SDS011;50449;51.528;5.076;2023-06-22T11:34:03;112.35;;;106.25;;
64157;SDS011;50449;51.528;5.076;2023-06-22T11:36:29;111.68;;;105.38;;
64157;SDS011;50449;51.528;5.076;2023-06-22T11:38:57;114.47;;;107.88;;
64157;SDS011;50449;51.528;5.076;2023-06-22T11:41:23;112.72;;;106.90;;
64157;SDS011;50449;51.528;5.076;2023-06-22T11:43:48;111.85;;;105.95;;
64157;SDS011;50449;51.528;5.076;2023-06-22T11:46:14;114.00;;;107.90;;
64157;SDS011;50449;51.528;5.076;2023-06-22T11:48:39;112.95;;;106.95;;
64157;SDS011;50449;51.528;5.076;2023-06-22T11:51:04;115.28;;;109.20;;
64157;SDS011;50449;51.528;5.076;2023-06-22T11:53:31;115.28;;;109.05;;
64157;SDS011;50449;51.528;5.076;2023-06-22T11:55:56;113.25;;;106.57;;
64157;SDS011;50449;51.528;5.076;2023-06-22T11:58:22;114.55;;;108.30;;
64157;SDS011;50449;51.528;5.076;2023-06-22T12:00:48;111.50;;;105.72;;
64157;SDS011;50449;51.528;5.076;2023-06-22T12:03:13;110.25;;;104.50;;
64157;SDS011;50449;51.528;5.076;2023-06-22T12:05:39;110.55;;;104.10;;
64157;SDS011;50449;51.528;5.076;2023-06-22T12:08:05;112.20;;;105.63;;
64157;SDS011;50449;51.528;5.076;2023-06-22T12:10:30;112.32;;;105.88;;
64157;SDS011;50449;51.528;5.076;2023-06-22T12:12:56;113.40;;;107.25;;
64157;SDS011;50449;51.528;5.076;2023-06-22T12:15:22;113.38;;;107.55;;
64157;SDS011;50449;51.528;5.076;2023-06-22T12:17:48;111.18;;;104.97;;
64157;SDS011;50449;51.528;5.076;2023-06-22T12:20:13;114.03;;;107.60;;
64157;SDS011;50449;51.528;5.076;2023-06-22T12:22:39;110.82;;;105.25;;
64157;SDS011;50449;51.528;5.076;2023-06-22T12:25:06;111.55;;;105.40;;
64157;SDS011;50449;51.528;5.076;2023-06-22T12:27:32;111.93;;;105.65;;
64157;SDS011;50449;51.528;5.076;2023-06-22T12:29:57;112.05;;;106.53;;
64157;SDS011;50449;51.528;5.076;2023-06-22T12:32:22;108.47;;;102.78;;
64157;SDS011;50449;51.528;5.076;2023-06-22T12:34:48;110.03;;;104.25;;
64157;SDS011;50449;51.528;5.076;2023-06-22T12:37:13;110.53;;;104.95;;
64157;SDS011;50449;51.528;5.076;2023-06-22T12:39:42;108.88;;;103.28;;
64157;SDS011;50449;51.528;5.076;2023-06-22T12:42:07;110.00;;;103.65;;
64157;SDS011;50449;51.528;5.076;2023-06-22T12:44:37;107.47;;;102.10;;
64157;SDS011;50449;51.528;5.076;2023-06-22T12:47:04;108.65;;;103.25;;
64157;SDS011;50449;51.528;5.076;2023-06-22T12:49:29;103.22;;;97.78;;
64157;SDS011;50449;51.528;5.076;2023-06-22T12:51:55;107.85;;;102.15;;
64157;SDS011;50449;51.528;5.076;2023-06-22T12:54:20;107.82;;;102.07;;
64157;SDS011;50449;51.528;5.076;2023-06-22T12:56:46;108.50;;;102.35;;
64157;SDS011;50449;51.528;5.076;2023-06-22T12:59:12;108.05;;;102.50;;
64157;SDS011;50449;51.528;5.076;2023-06-22T13:01:37;109.20;;;103.45;;
64157;SDS011;50449;51.528;5.076;2023-06-22T13:04:03;107.47;;;101.20;;
64157;SDS011;50449;51.528;5.076;2023-06-22T13:06:28;109.40;;;103.25;;
64157;SDS011;50449;51.528;5.076;2023-06-22T13:08:54;109.20;;;103.78;;
64157;SDS011;50449;51.528;5.076;2023-06-22T13:11:19;111.03;;;105.03;;
64157;SDS011;50449;51.528;5.076;2023-06-22T13:13:45;107.43;;;101.93;;
64157;SDS011;50449;51.528;5.076;2023-06-22T13:16:11;110.53;;;103.97;;
64157;SDS011;50449;51.528;5.076;2023-06-22T13:18:38;106.55;;;101.18;;
64157;SDS011;50449;51.528;5.076;2023-06-22T13:21:03;108.20;;;102.70;;
64157;SDS011;50449;51.528;5.076;2023-06-22T13:23:29;109.75;;;103.68;;
64157;SDS011;50449;51.528;5.076;2023-06-22T13:25:55;106.43;;;101.07;;
64157;SDS011;50449;51.528;5.076;2023-06-22T13:28:20;112.75;;;107.00;;
64157;SDS011;50449;51.528;5.076;2023-06-22T13:30:46;108.28;;;102.78;;
64157;SDS011;50449;51.528;5.076;2023-06-22T13:33:15;108.15;;;102.63;;
64157;SDS011;50449;51.528;5.076;2023-06-22T13:35:41;105.03;;;99.55;;
64157;SDS011;50449;51.528;5.076;2023-06-22T13:38:08;108.95;;;103.72;;
64157;SDS011;50449;51.528;5.076;2023-06-22T13:40:34;105.88;;;99.93;;
64157;SDS011;50449;51.528;5.076;2023-06-22T13:42:59;107.13;;;101.80;;
64157;SDS011;50449;51.528;5.076;2023-06-22T13:45:25;105.97;;;100.15;;
64157;SDS011;50449;51.528;5.076;2023-06-22T13:47:51;104.72;;;99.40;;
64157;SDS011;50449;51.528;5.076;2023-06-22T13:50:16;109.38;;;103.65;;
64157;SDS011;50449;51.528;5.076;2023-06-22T13:52:42;108.03;;;102.55;;
64157;SDS011;50449;51.528;5.076;2023-06-22T13:55:08;107.20;;;101.53;;
64157;SDS011;50449;51.528;5.076;2023-06-22T13:57:34;108.60;;;103.00;;
64157;SDS011;50449;51.528;5.076;2023-06-22T14:00:00;108.95;;;103.53;;
64157;SDS011;50449;51.528;5.076;2023-06-22T14:02:26;107.07;;;101.60;;